Current Weather

Kuwait Intl

Kuwait Intl, Kuwait (OKBK)

Report from: Tuesday, August 16, 2022 11:00 AM +03
Current time: Tuesday, August 16, 2022 11:14 AM +03

Nearby weather
Weather history
Weather forecast

Temperature43.0°C (109.4°F)
Heat index41.5°C (106.6°F)
Dew point10.0°C (50.0°F)
Winds 11 kts (5.7 m/s, 12.7 mph) North (350°)
Clouds Sky clear
Altimeter29.50 in.Hg (999 mB)
Relative humidity14 %
Density altitude3,778 ft. (1,152 m)
Remarks Ceiling and visibility OK
No significant changes expected in the next two hours
Flight conditions Visual Meteorological Conditions
Raw dataOKBK 160800Z 35011KT CAVOK 43/10 Q0999 NOSIG
An error has occurred. This application may no longer respond until reloaded. Reload 🗙